createdAt,value
2017-06-26T00:00:47.889Z,0
2017-06-26T00:01:56.824Z,0
2017-06-26T00:03:06.008Z,0
2017-06-26T00:04:14.948Z,0
2017-06-26T00:05:23.883Z,0
2017-06-26T00:06:32.828Z,0
2017-06-26T00:07:41.764Z,0
2017-06-26T00:08:50.958Z,0
2017-06-26T00:09:59.891Z,0
2017-06-26T00:11:08.838Z,0
2017-06-26T00:12:17.774Z,0
2017-06-26T00:13:27.050Z,0
2017-06-26T00:14:36.287Z,0
2017-06-26T00:15:45.227Z,0
2017-06-26T00:16:54.168Z,0
2017-06-26T00:18:03.198Z,0
2017-06-26T00:19:12.133Z,0
2017-06-26T00:20:21.322Z,0
2017-06-26T00:21:30.265Z,0
2017-06-26T00:22:39.548Z,0
2017-06-26T00:23:48.486Z,0
2017-06-26T00:24:57.425Z,0
2017-06-26T00:26:06.669Z,0
2017-06-26T00:27:15.606Z,0
2017-06-26T00:28:24.544Z,0
2017-06-26T00:29:33.483Z,0
2017-06-26T00:30:42.418Z,0
2017-06-26T00:31:51.654Z,0
2017-06-26T00:33:00.680Z,0
2017-06-26T00:34:09.616Z,0
2017-06-26T00:35:18.555Z,0
2017-06-26T00:36:27.490Z,0
2017-06-26T00:37:36.679Z,0
2017-06-26T00:38:45.616Z,0
2017-06-26T00:39:54.553Z,0
2017-06-26T00:41:03.488Z,0
2017-06-26T00:42:12.425Z,0
2017-06-26T00:43:21.616Z,0
2017-06-26T00:44:30.881Z,0
2017-06-26T00:45:39.817Z,0
2017-06-26T00:46:48.843Z,0
2017-06-26T00:47:57.785Z,0
2017-06-26T00:49:06.976Z,0
2017-06-26T00:50:15.917Z,0
2017-06-26T00:51:24.894Z,0
2017-06-26T00:52:33.835Z,0
2017-06-26T00:53:42.778Z,0
2017-06-26T00:54:51.965Z,0
2017-06-26T00:56:00.901Z,0
2017-06-26T00:57:09.844Z,0
2017-06-26T00:58:18.779Z,0
2017-06-26T00:59:27.798Z,0
2017-06-26T01:00:37.000Z,0
2017-06-26T01:01:46.270Z,0
2017-06-26T01:02:55.207Z,0
2017-06-26T01:04:04.142Z,0
2017-06-26T01:05:13.099Z,0
2017-06-26T01:06:22.343Z,0
2017-06-26T01:07:31.280Z,0
2017-06-26T01:08:40.214Z,0
2017-06-26T01:09:49.157Z,0
2017-06-26T01:10:58.096Z,0
2017-06-26T01:12:07.340Z,0
2017-06-26T01:13:16.276Z,0
2017-06-26T01:14:25.301Z,0
2017-06-26T01:15:34.240Z,0
2017-06-26T01:16:43.176Z,0
2017-06-26T01:17:52.449Z,0
2017-06-26T01:19:01.556Z,0
2017-06-26T01:20:10.494Z,0
2017-06-26T01:21:19.433Z,0
2017-06-26T01:22:28.369Z,0
2017-06-26T01:23:37.557Z,0
2017-06-26T01:24:46.500Z,0
2017-06-26T01:25:55.433Z,0
2017-06-26T01:27:04.369Z,0
2017-06-26T01:28:13.333Z,0
2017-06-26T01:29:22.526Z,0
2017-06-26T01:30:31.462Z,0
2017-06-26T01:31:40.400Z,0
2017-06-26T01:32:49.344Z,0
2017-06-26T01:33:58.281Z,0
2017-06-26T01:35:07.528Z,0
2017-06-26T01:36:16.546Z,0
2017-06-26T01:37:25.484Z,0
2017-06-26T01:38:34.425Z,0
2017-06-26T01:39:43.363Z,0
2017-06-26T01:40:52.922Z,0
2017-06-26T01:42:01.862Z,0
2017-06-26T01:43:10.798Z,0
2017-06-26T01:44:19.735Z,0
2017-06-26T01:45:28.676Z,0
2017-06-26T01:46:37.866Z,0
2017-06-26T01:47:46.802Z,0
2017-06-26T01:48:55.743Z,0
2017-06-26T01:50:04.678Z,0
2017-06-26T01:51:13.617Z,0
2017-06-26T01:52:23.190Z,0
2017-06-26T01:53:32.139Z,0
2017-06-26T01:54:41.399Z,0
2017-06-26T01:55:50.347Z,0
2017-06-26T01:56:59.626Z,0
2017-06-26T01:58:08.815Z,0
2017-06-26T01:59:17.758Z,0
2017-06-26T02:00:26.691Z,0
2017-06-26T02:01:35.625Z,0
2017-06-26T02:02:44.566Z,0
2017-06-26T02:03:53.803Z,0
2017-06-26T02:05:02.740Z,0
2017-06-26T02:06:12.007Z,0
2017-06-26T02:07:20.945Z,0
2017-06-26T02:08:29.877Z,0
2017-06-26T02:09:39.121Z,0
2017-06-26T02:10:48.057Z,0
2017-06-26T02:11:56.995Z,0
2017-06-26T02:13:05.933Z,0
2017-06-26T02:14:14.873Z,0
2017-06-26T02:15:24.107Z,0
2017-06-26T02:16:33.053Z,0
2017-06-26T02:17:41.991Z,0
2017-06-26T02:18:50.928Z,4
2017-06-26T02:19:59.866Z,4
2017-06-26T02:21:09.107Z,4
2017-06-26T02:22:18.076Z,4
2017-06-26T02:23:27.013Z,0
2017-06-26T02:24:35.948Z,4
2017-06-26T02:25:44.974Z,4
2017-06-26T02:26:54.164Z,4
2017-06-26T02:28:03.104Z,4
2017-06-26T02:29:12.048Z,4
2017-06-26T02:30:20.990Z,4
2017-06-26T02:31:29.927Z,8
2017-06-26T02:32:39.172Z,8
2017-06-26T02:33:48.195Z,8
2017-06-26T02:34:57.130Z,8
2017-06-26T02:36:06.072Z,12
2017-06-26T02:37:15.012Z,8
2017-06-26T02:38:24.204Z,12
2017-06-26T02:39:33.147Z,12
2017-06-26T02:40:42.088Z,16
2017-06-26T02:41:51.025Z,12
2017-06-26T02:42:59.966Z,16
2017-06-26T02:44:09.213Z,20
2017-06-26T02:45:18.150Z,20
2017-06-26T02:46:27.094Z,20
2017-06-26T02:47:36.034Z,24
2017-06-26T02:48:44.971Z,24
2017-06-26T02:49:54.157Z,28
2017-06-26T02:51:03.107Z,32
2017-06-26T02:52:12.046Z,32
2017-06-26T02:53:20.984Z,36
2017-06-26T02:54:29.917Z,40
2017-06-26T02:55:39.156Z,44
2017-06-26T02:56:48.097Z,48
2017-06-26T02:57:57.049Z,52
2017-06-26T02:59:06.311Z,56
2017-06-26T03:00:15.250Z,60
2017-06-26T03:01:24.490Z,60
2017-06-26T03:02:33.424Z,60
2017-06-26T03:03:42.360Z,56
2017-06-26T03:04:51.302Z,52
2017-06-26T03:06:00.326Z,48
2017-06-26T03:07:09.569Z,48
2017-06-26T03:08:18.828Z,44
2017-06-26T03:09:28.090Z,44
2017-06-26T03:10:37.032Z,44
2017-06-26T03:11:45.974Z,44
2017-06-26T03:12:55.162Z,44
2017-06-26T03:14:04.099Z,52
2017-06-26T03:15:13.038Z,56
2017-06-26T03:16:21.982Z,56
2017-06-26T03:17:30.919Z,72
2017-06-26T03:18:40.156Z,72
2017-06-26T03:19:49.098Z,56
2017-06-26T03:20:58.040Z,52
2017-06-26T03:22:06.977Z,52
2017-06-26T03:23:16.006Z,44
2017-06-26T03:24:25.199Z,48
2017-06-26T03:25:34.136Z,44
2017-06-26T03:26:43.076Z,40
2017-06-26T03:27:52.015Z,44
2017-06-26T03:29:00.950Z,40
2017-06-26T03:30:10.185Z,40
2017-06-26T03:31:19.125Z,36
2017-06-26T03:32:28.077Z,32
2017-06-26T03:33:37.018Z,24
2017-06-26T03:34:45.958Z,20
2017-06-26T03:35:55.147Z,24
2017-06-26T03:37:04.083Z,24
2017-06-26T03:38:13.341Z,24
2017-06-26T03:39:22.295Z,24
2017-06-26T03:40:31.231Z,20
2017-06-26T03:41:40.471Z,24
2017-06-26T03:42:49.411Z,32
2017-06-26T03:43:58.352Z,32
2017-06-26T03:45:07.624Z,36
2017-06-26T03:46:16.561Z,40
2017-06-26T03:47:25.750Z,52
2017-06-26T03:48:34.692Z,80
2017-06-26T03:49:43.626Z,84
2017-06-26T03:50:52.566Z,84
2017-06-26T03:52:01.505Z,80
2017-06-26T03:53:10.701Z,84
2017-06-26T03:54:19.637Z,96
2017-06-26T03:55:28.658Z,112
2017-06-26T03:56:37.594Z,140
2017-06-26T03:57:46.620Z,160
2017-06-26T03:58:55.814Z,168
2017-06-26T04:00:04.753Z,212
2017-06-26T04:01:13.695Z,276
2017-06-26T04:02:22.638Z,284
2017-06-26T04:03:31.582Z,280
2017-06-26T04:04:40.770Z,296
2017-06-26T04:05:49.710Z,264
2017-06-26T04:06:58.655Z,324
2017-06-26T04:08:07.595Z,376
2017-06-26T04:09:16.532Z,468
2017-06-26T04:10:25.724Z,436
2017-06-26T04:11:34.688Z,388
2017-06-26T04:12:43.626Z,320
2017-06-26T04:13:52.564Z,268
2017-06-26T04:15:01.518Z,300
2017-06-26T04:16:11.028Z,288
2017-06-26T04:17:19.966Z,256
2017-06-26T04:18:28.907Z,304
2017-06-26T04:19:37.846Z,328
2017-06-26T04:20:46.789Z,284
2017-06-26T04:21:56.314Z,188
2017-06-26T04:23:05.251Z,156
2017-06-26T04:24:14.188Z,172
2017-06-26T04:25:23.132Z,228
2017-06-26T04:26:32.074Z,172
2017-06-26T04:27:41.312Z,136
2017-06-26T04:28:50.258Z,176
2017-06-26T04:29:59.197Z,212
2017-06-26T04:31:08.134Z,168
2017-06-26T04:32:17.085Z,252
2017-06-26T04:33:26.271Z,176
2017-06-26T04:34:35.210Z,208
2017-06-26T04:35:44.151Z,196
2017-06-26T04:36:53.086Z,296
2017-06-26T04:38:02.021Z,332
2017-06-26T04:39:11.299Z,284
2017-06-26T04:40:20.238Z,224
2017-06-26T04:41:29.176Z,272
2017-06-26T04:42:38.113Z,332
2017-06-26T04:43:47.070Z,344
2017-06-26T04:44:56.261Z,404
2017-06-26T04:46:05.201Z,396
2017-06-26T04:47:14.143Z,364
2017-06-26T04:48:23.082Z,252
2017-06-26T04:49:32.018Z,284
2017-06-26T04:50:41.206Z,476
2017-06-26T04:51:50.172Z,516
2017-06-26T04:52:59.109Z,496
2017-06-26T04:54:08.053Z,384
2017-06-26T04:55:16.989Z,444
2017-06-26T04:56:26.347Z,436
2017-06-26T04:57:35.288Z,428
2017-06-26T04:58:44.227Z,464
2017-06-26T04:59:53.165Z,388
2017-06-26T05:01:02.098Z,268
2017-06-26T05:02:11.293Z,288
2017-06-26T05:03:20.226Z,232
2017-06-26T05:04:29.162Z,284
2017-06-26T05:05:38.105Z,264
2017-06-26T05:06:47.043Z,192
2017-06-26T05:07:56.228Z,184
2017-06-26T05:09:05.255Z,188
2017-06-26T05:10:14.203Z,232
2017-06-26T05:11:23.226Z,228
2017-06-26T05:12:32.165Z,248
2017-06-26T05:13:41.355Z,276
2017-06-26T05:14:50.298Z,288
2017-06-26T05:15:59.574Z,284
2017-06-26T05:17:08.517Z,312
2017-06-26T05:18:17.455Z,380
2017-06-26T05:19:26.642Z,336
2017-06-26T05:20:35.583Z,272
2017-06-26T05:21:44.521Z,256
2017-06-26T05:22:53.465Z,344
2017-06-26T05:24:02.398Z,348
2017-06-26T05:25:11.589Z,276
2017-06-26T05:26:20.525Z,208
2017-06-26T05:27:29.464Z,188
2017-06-26T05:28:38.441Z,172
2017-06-26T05:29:47.380Z,128
2017-06-26T05:30:56.571Z,120
2017-06-26T05:32:05.509Z,108
2017-06-26T05:33:14.459Z,76
2017-06-26T05:34:23.482Z,92
2017-06-26T05:35:32.426Z,176
2017-06-26T05:36:41.616Z,328
2017-06-26T05:37:50.551Z,304
2017-06-26T05:38:59.572Z,324
2017-06-26T05:40:08.839Z,256
2017-06-26T05:41:17.859Z,256
2017-06-26T05:42:27.055Z,208
2017-06-26T05:43:35.990Z,140
2017-06-26T05:44:45.017Z,196
2017-06-26T05:45:53.955Z,188
2017-06-26T05:47:02.897Z,188
2017-06-26T05:48:12.088Z,208
2017-06-26T05:49:21.029Z,220
2017-06-26T05:50:30.049Z,220
2017-06-26T05:51:38.984Z,288
2017-06-26T05:52:47.923Z,320
2017-06-26T05:53:57.113Z,320
2017-06-26T05:55:06.058Z,484
2017-06-26T05:56:14.993Z,536
2017-06-26T05:57:24.020Z,492
2017-06-26T05:58:32.961Z,496
2017-06-26T05:59:42.147Z,440
2017-06-26T06:00:51.083Z,352
2017-06-26T06:02:00.017Z,316
2017-06-26T06:03:08.953Z,144
2017-06-26T06:04:17.897Z,96
2017-06-26T06:05:27.086Z,84
2017-06-26T06:06:36.105Z,96
2017-06-26T06:07:45.046Z,148
2017-06-26T06:08:53.990Z,184
2017-06-26T06:10:02.929Z,184
2017-06-26T06:11:12.121Z,196
2017-06-26T06:12:21.052Z,256
2017-06-26T06:13:30.071Z,220
2017-06-26T06:14:39.009Z,264
2017-06-26T06:15:47.947Z,276
2017-06-26T06:16:57.151Z,200
2017-06-26T06:18:06.405Z,152
2017-06-26T06:19:15.341Z,156
2017-06-26T06:20:24.281Z,232
2017-06-26T06:21:33.221Z,288
2017-06-26T06:22:42.469Z,308
2017-06-26T06:23:51.403Z,328
2017-06-26T06:25:00.343Z,344
2017-06-26T06:26:09.364Z,308
2017-06-26T06:27:18.393Z,276
2017-06-26T06:28:27.579Z,292
2017-06-26T06:29:36.515Z,244
2017-06-26T06:30:45.532Z,312
2017-06-26T06:31:54.479Z,384
2017-06-26T06:33:03.434Z,428
2017-06-26T06:34:12.618Z,564
2017-06-26T06:35:21.559Z,588
2017-06-26T06:36:30.500Z,668
2017-06-26T06:37:39.433Z,688
2017-06-26T06:38:48.371Z,636
2017-06-26T06:40:00.214Z,660
2017-06-26T06:41:10.918Z,700
2017-06-26T06:42:19.868Z,620
2017-06-26T06:43:28.804Z,472
2017-06-26T06:44:37.741Z,412
2017-06-26T06:45:46.934Z,468
2017-06-26T06:46:55.872Z,472
2017-06-26T06:48:04.812Z,452
2017-06-26T06:49:13.753Z,440
2017-06-26T06:50:23.220Z,444
2017-06-26T06:51:32.417Z,432
2017-06-26T06:52:41.360Z,444
2017-06-26T06:53:50.330Z,472
2017-06-26T06:54:59.775Z,512
2017-06-26T06:56:08.985Z,476
2017-06-26T06:57:18.584Z,488
2017-06-26T06:58:28.160Z,512
2017-06-26T06:59:37.453Z,516
2017-06-26T07:00:46.390Z,528
2017-06-26T07:01:55.865Z,624
2017-06-26T07:03:05.608Z,600
2017-06-26T07:04:15.662Z,548
2017-06-26T07:05:24.604Z,548
2017-06-26T07:06:33.548Z,632
2017-06-26T07:07:42.512Z,684
2017-06-26T07:08:51.738Z,788
2017-06-26T07:10:01.092Z,756
2017-06-26T07:11:10.171Z,700
2017-06-26T07:12:19.110Z,668
2017-06-26T07:13:28.216Z,704
2017-06-26T07:14:37.409Z,752
2017-06-26T07:15:46.503Z,856
2017-06-26T07:16:55.660Z,944
2017-06-26T07:18:04.721Z,972
2017-06-26T07:19:13.739Z,904
2017-06-26T07:20:22.933Z,996
2017-06-26T07:21:32.205Z,1160
2017-06-26T07:22:41.144Z,1364
2017-06-26T07:23:50.092Z,1296
2017-06-26T07:24:59.062Z,1444
2017-06-26T07:26:08.280Z,1864
2017-06-26T07:27:17.238Z,1980
2017-06-26T07:28:26.287Z,1964
2017-06-26T07:29:35.348Z,2092
2017-06-26T07:30:44.397Z,1976
2017-06-26T07:31:53.622Z,1596
2017-06-26T07:33:02.591Z,1676
2017-06-26T07:34:11.554Z,1544
2017-06-26T07:35:20.534Z,1836
2017-06-26T07:36:29.508Z,1864
2017-06-26T07:37:39.107Z,1896
2017-06-26T07:38:48.070Z,2752
2017-06-26T07:39:57.053Z,2904
2017-06-26T07:41:06.340Z,4056
2017-06-26T07:42:15.304Z,4292
2017-06-26T07:43:24.607Z,3504
2017-06-26T07:44:33.579Z,3152
2017-06-26T07:45:42.633Z,3324
2017-06-26T07:46:51.597Z,2896
2017-06-26T07:48:00.572Z,3700
2017-06-26T07:49:09.839Z,3004
2017-06-26T07:50:18.988Z,3456
2017-06-26T07:51:27.950Z,2388
2017-06-26T07:52:36.919Z,2448
2017-06-26T07:53:45.882Z,2252
2017-06-26T07:54:55.101Z,2540
2017-06-26T07:56:04.076Z,2536
2017-06-26T07:57:13.055Z,2464
2017-06-26T07:58:22.025Z,1512
2017-06-26T07:59:30.990Z,1988
2017-06-26T08:00:40.219Z,2336
2017-06-26T08:01:49.182Z,2220
2017-06-26T08:02:58.468Z,2884
2017-06-26T08:04:07.433Z,4180
2017-06-26T08:05:16.725Z,3300
2017-06-26T08:06:26.002Z,3684
2017-06-26T08:07:34.977Z,4076
2017-06-26T08:08:43.942Z,4336
2017-06-26T08:09:52.911Z,4684
2017-06-26T08:11:01.883Z,3868
2017-06-26T08:12:11.161Z,3460
2017-06-26T08:13:20.129Z,3332
2017-06-26T08:14:29.100Z,4004
2017-06-26T08:15:38.086Z,3192
2017-06-26T08:16:47.065Z,3052
2017-06-26T08:17:56.284Z,4632
2017-06-26T08:19:05.265Z,3276
2017-06-26T08:20:14.232Z,3716
2017-06-26T08:21:23.197Z,3032
2017-06-26T08:22:32.333Z,2520
2017-06-26T08:23:41.627Z,2664
2017-06-26T08:24:50.573Z,2108
2017-06-26T08:25:59.518Z,2052
2017-06-26T08:27:08.847Z,3084
2017-06-26T08:28:17.866Z,4088
2017-06-26T08:29:27.135Z,4692
2017-06-26T08:30:36.121Z,4328
2017-06-26T08:31:45.094Z,3132
2017-06-26T08:32:54.202Z,1952
2017-06-26T08:34:03.213Z,2224
2017-06-26T08:35:12.519Z,3376
2017-06-26T08:36:21.495Z,2828
2017-06-26T08:37:30.440Z,3876
2017-06-26T08:38:39.489Z,4536
2017-06-26T08:39:48.485Z,4652
2017-06-26T08:40:57.851Z,2524
2017-06-26T08:42:06.816Z,3568
2017-06-26T08:43:15.964Z,2144
2017-06-26T08:44:24.983Z,2356
2017-06-26T08:45:33.995Z,3792
2017-06-26T08:46:43.331Z,3572
2017-06-26T08:47:52.420Z,5148
2017-06-26T08:49:01.492Z,5208
2017-06-26T08:50:10.441Z,4152
2017-06-26T08:51:19.388Z,2588
2017-06-26T08:52:28.620Z,3996
2017-06-26T08:53:37.677Z,5808
2017-06-26T08:54:46.716Z,3980
2017-06-26T08:55:55.662Z,4476
2017-06-26T08:57:04.656Z,4716
2017-06-26T08:58:13.925Z,4492
2017-06-26T08:59:22.879Z,4624
2017-06-26T09:00:31.933Z,4012
2017-06-26T09:01:40.905Z,3652
2017-06-26T09:02:49.997Z,3120
2017-06-26T09:03:59.688Z,4020
2017-06-26T09:05:08.852Z,3184
2017-06-26T09:06:17.876Z,3852
2017-06-26T09:07:27.145Z,4624
2017-06-26T09:08:36.201Z,4136
2017-06-26T09:09:45.407Z,4068
2017-06-26T09:10:54.681Z,3668
2017-06-26T09:12:04.217Z,3256
2017-06-26T09:13:13.365Z,2728
2017-06-26T09:14:22.344Z,3468
2017-06-26T09:15:31.567Z,2328
2017-06-26T09:16:40.518Z,2300
2017-06-26T09:17:49.472Z,2200
2017-06-26T09:18:58.417Z,2944
2017-06-26T09:20:07.362Z,3416
2017-06-26T09:21:16.564Z,4448
2017-06-26T09:22:25.512Z,3772
2017-06-26T09:23:34.466Z,2684
2017-06-26T09:24:43.744Z,2252
2017-06-26T09:25:52.799Z,2452
2017-06-26T09:27:02.125Z,1760
2017-06-26T09:28:11.103Z,1620
2017-06-26T09:29:20.057Z,1508
2017-06-26T09:30:29.014Z,1440
2017-06-26T09:31:38.280Z,1388
2017-06-26T09:32:47.475Z,1368
2017-06-26T09:33:56.442Z,1340
2017-06-26T09:35:05.406Z,1348
2017-06-26T09:36:14.353Z,1324
2017-06-26T09:37:23.302Z,1312
2017-06-26T09:38:32.515Z,1288
2017-06-26T09:39:41.471Z,1380
2017-06-26T09:40:50.429Z,1308
2017-06-26T09:41:59.379Z,1352
2017-06-26T09:43:08.333Z,1456
2017-06-26T09:44:17.533Z,1288
2017-06-26T09:45:26.475Z,1268
2017-06-26T09:46:35.417Z,1272
2017-06-26T09:47:44.362Z,1264
2017-06-26T09:48:53.310Z,1280
2017-06-26T09:50:02.502Z,1412
2017-06-26T09:51:11.450Z,1544
2017-06-26T09:52:20.402Z,1424
2017-06-26T09:53:29.353Z,1428
2017-06-26T09:54:38.301Z,1444
2017-06-26T09:55:47.494Z,1524
2017-06-26T09:56:56.447Z,1652
2017-06-26T09:58:05.391Z,1928
2017-06-26T09:59:14.345Z,1584
2017-06-26T10:00:23.288Z,1604
2017-06-26T10:01:32.494Z,1744
2017-06-26T10:02:41.767Z,1452
2017-06-26T10:03:50.714Z,1600
2017-06-26T10:04:59.661Z,1768
2017-06-26T10:06:08.614Z,1804
2017-06-26T10:07:17.813Z,2236
2017-06-26T10:08:26.761Z,2916
2017-06-26T10:09:35.715Z,2656
2017-06-26T10:10:44.660Z,2088
2017-06-26T10:11:53.615Z,1708
2017-06-26T10:13:02.810Z,1652
2017-06-26T10:14:11.764Z,2896
2017-06-26T10:15:20.710Z,1400
2017-06-26T10:16:29.652Z,1096
2017-06-26T10:17:38.679Z,2312
2017-06-26T10:18:47.928Z,2984
2017-06-26T10:20:01.961Z,1080
2017-06-26T10:21:15.851Z,1892
2017-06-26T10:22:29.078Z,2580
2017-06-26T10:23:41.508Z,1816
2017-06-26T10:24:53.876Z,1468
2017-06-26T10:26:05.895Z,1588
2017-06-26T10:27:17.562Z,2496
2017-06-26T10:28:27.251Z,3552
2017-06-26T10:29:36.545Z,1872
2017-06-26T10:30:45.497Z,2156
2017-06-26T10:31:54.446Z,3196
2017-06-26T10:33:03.395Z,2964
2017-06-26T10:34:12.347Z,2340
2017-06-26T10:35:21.658Z,2164
2017-06-26T10:36:30.614Z,2708
2017-06-26T10:37:39.652Z,3288
2017-06-26T10:38:48.600Z,3204
2017-06-26T10:39:57.640Z,2996
2017-06-26T10:41:07.017Z,3712
2017-06-26T10:42:15.972Z,3152
2017-06-26T10:43:25.000Z,3748
2017-06-26T10:44:33.952Z,3488
2017-06-26T10:45:42.988Z,2672
2017-06-26T10:46:52.283Z,1824
2017-06-26T10:48:01.949Z,2412
2017-06-26T10:49:13.611Z,2804
2017-06-26T10:50:24.201Z,2392
2017-06-26T10:51:33.158Z,2212
2017-06-26T10:52:42.410Z,1592
2017-06-26T10:53:51.367Z,1876
2017-06-26T10:55:00.313Z,2420
2017-06-26T10:56:10.298Z,2196
2017-06-26T10:57:19.702Z,3100
2017-06-26T10:58:30.829Z,1576
2017-06-26T10:59:41.251Z,1336
2017-06-26T11:00:53.148Z,1696
2017-06-26T11:02:04.015Z,2244
2017-06-26T11:03:13.596Z,1288
2017-06-26T11:04:23.624Z,1608
2017-06-26T11:05:33.089Z,2364
2017-06-26T11:06:42.474Z,2196
2017-06-26T11:07:52.063Z,1892
2017-06-26T11:09:01.439Z,1416
2017-06-26T11:10:11.412Z,1944
2017-06-26T11:11:21.587Z,2012
2017-06-26T11:12:31.066Z,1520
2017-06-26T11:13:40.594Z,1244
2017-06-26T11:14:49.554Z,800
2017-06-26T11:15:58.756Z,1136
2017-06-26T11:17:07.710Z,1364
2017-06-26T11:18:16.660Z,1128
2017-06-26T11:19:25.627Z,916
2017-06-26T11:20:34.717Z,952
2017-06-26T11:21:43.927Z,1280
2017-06-26T11:22:53.464Z,1364
2017-06-26T11:24:02.581Z,2604
2017-06-26T11:25:11.524Z,2096
2017-06-26T11:26:20.474Z,1896
2017-06-26T11:27:29.682Z,2116
2017-06-26T11:28:38.631Z,1972
2017-06-26T11:29:47.581Z,1456
2017-06-26T11:30:56.534Z,1420
2017-06-26T11:32:05.851Z,1416
2017-06-26T11:33:16.764Z,1596
2017-06-26T11:34:26.217Z,1516
2017-06-26T11:35:35.167Z,1472
2017-06-26T11:36:44.125Z,2112
2017-06-26T11:37:53.072Z,1836
2017-06-26T11:39:02.278Z,1304
2017-06-26T11:40:11.552Z,1276
2017-06-26T11:41:20.502Z,1144
2017-06-26T11:42:29.458Z,1100
2017-06-26T11:43:38.412Z,1852
2017-06-26T11:44:47.614Z,1316
2017-06-26T11:45:56.707Z,1472
2017-06-26T11:47:05.749Z,1020
2017-06-26T11:48:14.813Z,692
2017-06-26T11:49:24.022Z,1360
2017-06-26T11:50:33.269Z,1428
2017-06-26T11:51:42.223Z,1368
2017-06-26T11:52:51.215Z,1424
2017-06-26T11:54:00.899Z,1832
2017-06-26T11:55:10.252Z,1904
2017-06-26T11:56:19.577Z,2784
2017-06-26T11:57:28.697Z,2428
2017-06-26T11:58:37.930Z,2844
2017-06-26T11:59:47.038Z,1920
2017-06-26T12:00:56.110Z,2260
2017-06-26T12:02:05.549Z,1608
2017-06-26T12:03:14.569Z,2224
2017-06-26T12:04:23.537Z,3140
2017-06-26T12:05:32.851Z,2800
2017-06-26T12:06:41.847Z,1816
2017-06-26T12:07:51.131Z,1428
2017-06-26T12:09:00.077Z,1424
2017-06-26T12:10:09.198Z,940
2017-06-26T12:11:18.152Z,1860
2017-06-26T12:12:27.100Z,2192
2017-06-26T12:13:36.305Z,2352
2017-06-26T12:14:45.264Z,2116
2017-06-26T12:15:54.554Z,1844
2017-06-26T12:17:03.887Z,1212
2017-06-26T12:18:12.828Z,1096
2017-06-26T12:19:22.026Z,720
2017-06-26T12:20:30.978Z,660
2017-06-26T12:21:39.934Z,780
2017-06-26T12:22:48.887Z,852
2017-06-26T12:23:57.941Z,728
2017-06-26T12:25:07.150Z,1792
2017-06-26T12:26:16.096Z,1788
2017-06-26T12:27:25.117Z,2060
2017-06-26T12:28:34.062Z,2036
2017-06-26T12:29:43.009Z,2564
2017-06-26T12:30:52.205Z,3104
2017-06-26T12:32:01.147Z,2656
2017-06-26T12:33:10.287Z,1308
2017-06-26T12:34:19.242Z,1320
2017-06-26T12:35:28.197Z,1492
2017-06-26T12:36:37.448Z,1884
2017-06-26T12:37:46.392Z,1788
2017-06-26T12:38:55.411Z,1516
2017-06-26T12:40:04.418Z,1644
2017-06-26T12:41:13.377Z,1644
2017-06-26T12:42:22.780Z,1548
2017-06-26T12:43:31.738Z,1424
2017-06-26T12:44:40.687Z,1204
2017-06-26T12:45:49.638Z,1308
2017-06-26T12:46:58.686Z,1500
2017-06-26T12:48:07.934Z,1256
2017-06-26T12:49:16.885Z,1920
2017-06-26T12:50:25.838Z,1524
2017-06-26T12:51:35.094Z,1460
2017-06-26T12:52:44.040Z,1384
2017-06-26T12:53:53.246Z,1424
2017-06-26T12:55:02.194Z,1396
2017-06-26T12:56:11.146Z,1096
2017-06-26T12:57:20.220Z,1816
2017-06-26T12:58:29.389Z,1260
2017-06-26T12:59:38.582Z,1988
2017-06-26T13:00:47.548Z,1760
2017-06-26T13:01:59.490Z,1840
2017-06-26T13:03:09.931Z,2220
2017-06-26T13:04:18.889Z,2324
2017-06-26T13:05:28.175Z,2892
2017-06-26T13:06:37.122Z,1616
2017-06-26T13:07:46.086Z,1600
2017-06-26T13:08:55.134Z,1136
2017-06-26T13:10:04.321Z,2160
2017-06-26T13:11:13.631Z,2100
2017-06-26T13:12:22.975Z,1272
2017-06-26T13:13:32.324Z,1156
2017-06-26T13:14:41.285Z,1196
2017-06-26T13:15:50.293Z,2556
2017-06-26T13:16:59.618Z,2676
2017-06-26T13:18:08.657Z,1284
2017-06-26T13:19:17.644Z,1248
2017-06-26T13:20:26.590Z,1588
2017-06-26T13:21:35.581Z,2212
2017-06-26T13:22:44.801Z,2148
2017-06-26T13:23:53.750Z,1800
2017-06-26T13:25:02.993Z,2508
2017-06-26T13:26:12.758Z,1776
2017-06-26T13:27:22.537Z,1916
2017-06-26T13:28:32.818Z,2068
2017-06-26T13:29:43.787Z,1872
2017-06-26T13:30:53.192Z,1572
2017-06-26T13:32:02.538Z,1964
2017-06-26T13:33:11.970Z,1140
2017-06-26T13:34:22.390Z,844
2017-06-26T13:35:32.066Z,672
2017-06-26T13:36:41.524Z,1068
2017-06-26T13:37:52.167Z,1492
2017-06-26T13:39:02.249Z,1660
2017-06-26T13:40:12.070Z,1248
2017-06-26T13:41:21.675Z,1728
2017-06-26T13:42:31.375Z,1824
2017-06-26T13:43:41.312Z,1560
2017-06-26T13:44:51.707Z,1824
2017-06-26T13:46:01.770Z,1668
2017-06-26T13:47:11.504Z,1608
2017-06-26T13:48:22.362Z,1556
2017-06-26T13:49:31.705Z,1768
2017-06-26T13:50:41.457Z,2000
2017-06-26T13:51:51.114Z,2328
2017-06-26T13:53:01.457Z,2620
2017-06-26T13:54:11.184Z,2324
2017-06-26T13:55:20.606Z,1612
2017-06-26T13:56:29.565Z,2448
2017-06-26T13:57:38.997Z,1968
2017-06-26T13:58:48.039Z,1616
2017-06-26T13:59:56.999Z,1964
2017-06-26T14:01:06.563Z,1724
2017-06-26T14:02:16.307Z,1772
2017-06-26T14:03:26.020Z,1436
2017-06-26T14:04:35.353Z,1528
2017-06-26T14:05:45.640Z,2284
2017-06-26T14:06:56.201Z,2012
2017-06-26T14:08:06.593Z,2128
2017-06-26T14:09:18.282Z,2272
2017-06-26T14:10:28.255Z,2264
2017-06-26T14:11:38.487Z,2360
2017-06-26T14:12:48.058Z,2340
2017-06-26T14:13:57.365Z,2204
2017-06-26T14:15:07.545Z,2228
2017-06-26T14:16:17.072Z,2264
2017-06-26T14:17:26.720Z,3112
2017-06-26T14:18:35.940Z,2376
2017-06-26T14:19:45.867Z,2296
2017-06-26T14:20:55.816Z,2284
2017-06-26T14:22:05.433Z,1984
2017-06-26T14:23:14.966Z,1540
2017-06-26T14:24:24.419Z,1308
2017-06-26T14:25:34.196Z,1448
2017-06-26T14:26:43.771Z,1076
2017-06-26T14:27:53.371Z,792
2017-06-26T14:29:03.398Z,564
2017-06-26T14:30:12.707Z,632
2017-06-26T14:31:22.374Z,996
2017-06-26T14:32:32.372Z,924
2017-06-26T14:33:41.661Z,868
2017-06-26T14:34:50.952Z,624
2017-06-26T14:36:00.324Z,524
2017-06-26T14:37:09.550Z,620
2017-06-26T14:38:19.346Z,728
2017-06-26T14:39:28.866Z,920
2017-06-26T14:40:38.191Z,932
2017-06-26T14:41:47.651Z,1040
2017-06-26T14:42:56.842Z,1900
2017-06-26T14:44:07.072Z,2744
2017-06-26T14:45:16.122Z,2304
2017-06-26T14:46:25.404Z,2516
2017-06-26T14:47:34.439Z,1764
2017-06-26T14:48:43.402Z,1472
2017-06-26T14:49:52.601Z,940
2017-06-26T14:51:01.974Z,1384
2017-06-26T14:52:11.421Z,744
2017-06-26T14:53:20.644Z,1276
2017-06-26T14:54:29.694Z,724
2017-06-26T14:55:38.974Z,1096
2017-06-26T14:56:48.013Z,1044
2017-06-26T14:57:56.962Z,996
2017-06-26T14:59:07.088Z,1132
2017-06-26T15:00:16.697Z,1648
2017-06-26T15:01:26.154Z,2044
2017-06-26T15:02:35.107Z,2100
2017-06-26T15:03:44.055Z,1568
2017-06-26T15:04:53.007Z,2044
2017-06-26T15:06:01.945Z,1668
2017-06-26T15:07:11.616Z,1500
2017-06-26T15:08:21.427Z,1132
2017-06-26T15:09:30.719Z,1184
2017-06-26T15:10:39.902Z,1616
2017-06-26T15:11:49.471Z,1656
2017-06-26T15:12:59.263Z,1508
2017-06-26T15:14:09.054Z,1468
2017-06-26T15:15:18.745Z,2416
2017-06-26T15:16:28.427Z,1672
2017-06-26T15:17:37.656Z,1560
2017-06-26T15:18:47.421Z,1648
2017-06-26T15:19:56.954Z,1364
2017-06-26T15:21:06.438Z,1580
2017-06-26T15:22:16.018Z,1636
2017-06-26T15:23:25.270Z,1376
2017-06-26T15:24:35.413Z,1108
2017-06-26T15:25:45.037Z,1284
2017-06-26T15:26:55.054Z,1592
2017-06-26T15:28:04.509Z,1344
2017-06-26T15:29:14.265Z,1132
2017-06-26T15:30:24.144Z,1032
2017-06-26T15:31:33.793Z,1044
2017-06-26T15:32:43.312Z,1000
2017-06-26T15:33:52.908Z,1004
2017-06-26T15:35:02.107Z,1208
2017-06-26T15:36:11.662Z,1220
2017-06-26T15:37:20.998Z,1220
2017-06-26T15:38:30.786Z,1260
2017-06-26T15:39:40.301Z,1204
2017-06-26T15:40:50.697Z,1168
2017-06-26T15:42:00.324Z,1364
2017-06-26T15:43:09.753Z,1552
2017-06-26T15:44:19.171Z,1408
2017-06-26T15:45:28.438Z,1312
2017-06-26T15:46:37.960Z,1328
2017-06-26T15:47:47.559Z,1480
2017-06-26T15:48:57.178Z,1136
2017-06-26T15:50:06.750Z,944